createdAt,value
2023-03-16T00:00:33.266Z,2.88
2023-03-16T00:04:37.450Z,3.10
2023-03-16T00:08:40.241Z,2.47
2023-03-16T00:12:44.986Z,3.10
2023-03-16T00:16:47.880Z,3.00
2023-03-16T00:20:55.349Z,3.60
2023-03-16T00:24:58.735Z,3.08
2023-03-16T00:29:02.829Z,3.75
2023-03-16T00:33:05.627Z,3.55
2023-03-16T00:37:08.664Z,3.45
2023-03-16T00:41:14.249Z,3.25
2023-03-16T00:45:18.520Z,3.20
2023-03-16T00:49:22.323Z,2.70
2023-03-16T00:53:25.256Z,2.50
2023-03-16T00:57:30.025Z,3.00
2023-03-16T01:01:34.583Z,2.85
2023-03-16T01:05:41.873Z,2.90
2023-03-16T01:09:44.864Z,2.53
2023-03-16T01:13:48.554Z,2.67
2023-03-16T01:17:52.782Z,1.98
2023-03-16T01:21:55.594Z,2.17
2023-03-16T01:25:59.097Z,1.95
2023-03-16T01:30:02.272Z,2.08
2023-03-16T01:34:06.933Z,2.22
2023-03-16T01:38:10.497Z,2.30
2023-03-16T01:42:15.015Z,2.25
2023-03-16T01:46:21.435Z,2.28
2023-03-16T01:50:27.749Z,2.35
2023-03-16T01:54:33.775Z,2.08
2023-03-16T01:58:38.463Z,2.30
2023-03-16T02:02:44.444Z,2.08
2023-03-16T02:06:57.471Z,2.60
2023-03-16T02:11:01.291Z,2.50
2023-03-16T02:15:16.871Z,2.35
2023-03-16T02:19:32.702Z,2.45
2023-03-16T02:23:36.813Z,2.47
2023-03-16T02:27:47.473Z,2.50
2023-03-16T02:31:52.498Z,2.75
2023-03-16T02:35:55.439Z,2.33
2023-03-16T02:39:58.364Z,2.20
2023-03-16T02:44:05.050Z,2.40
2023-03-16T02:48:19.061Z,2.47
2023-03-16T02:52:21.877Z,2.65
2023-03-16T02:56:24.700Z,2.65
2023-03-16T03:00:27.718Z,2.65
2023-03-16T03:04:32.988Z,2.60
2023-03-16T03:08:35.779Z,2.72
2023-03-16T03:12:38.624Z,3.30
2023-03-16T03:16:46.644Z,3.05
2023-03-16T03:20:52.757Z,3.15
2023-03-16T03:24:55.551Z,3.08
2023-03-16T03:28:58.379Z,2.90
2023-03-16T03:33:01.653Z,2.70
2023-03-16T03:37:06.902Z,2.92
2023-03-16T03:41:10.496Z,2.92
2023-03-16T03:45:15.633Z,3.00
2023-03-16T03:49:18.863Z,2.60
2023-03-16T03:53:25.664Z,2.80
2023-03-16T03:57:44.218Z,3.05
2023-03-16T04:01:47.137Z,2.95
2023-03-16T04:05:50.032Z,3.38
2023-03-16T04:09:54.308Z,3.00
2023-03-16T04:14:03.748Z,2.60
2023-03-16T04:18:06.737Z,2.75
2023-03-16T04:22:10.264Z,2.80
2023-03-16T04:26:14.619Z,3.15
2023-03-16T04:30:20.313Z,3.08
2023-03-16T04:34:28.560Z,3.17
2023-03-16T04:38:37.987Z,2.90
2023-03-16T04:42:42.294Z,2.70
2023-03-16T04:46:48.878Z,3.72
2023-03-16T04:50:53.736Z,3.10
2023-03-16T04:54:57.230Z,3.45
2023-03-16T04:59:02.252Z,3.70
2023-03-16T05:03:11.145Z,3.15
2023-03-16T05:07:14.170Z,3.47
2023-03-16T05:11:21.448Z,3.28
2023-03-16T05:15:33.637Z,3.90
2023-03-16T05:19:50.737Z,3.40
2023-03-16T05:23:55.533Z,3.38
2023-03-16T05:27:58.790Z,3.53
2023-03-16T05:32:12.064Z,3.13
2023-03-16T05:36:17.529Z,3.20
2023-03-16T05:40:23.784Z,3.58
2023-03-16T05:44:35.430Z,3.28
2023-03-16T05:48:51.203Z,3.20
2023-03-16T05:52:55.991Z,3.30
2023-03-16T05:57:00.335Z,3.33
2023-03-16T06:01:05.388Z,3.70
2023-03-16T06:05:10.304Z,3.58
2023-03-16T06:09:16.606Z,3.45
2023-03-16T06:13:19.613Z,3.58
2023-03-16T06:17:22.482Z,3.70
2023-03-16T06:21:26.681Z,3.97
2023-03-16T06:25:31.787Z,3.42
2023-03-16T06:29:34.959Z,3.33
2023-03-16T06:33:39.007Z,3.40
2023-03-16T06:37:43.613Z,3.45
2023-03-16T06:42:00.730Z,3.28
2023-03-16T06:46:04.365Z,2.97
2023-03-16T06:50:08.977Z,3.22
2023-03-16T06:54:13.668Z,2.72
2023-03-16T06:58:16.721Z,3.33
2023-03-16T07:02:37.141Z,3.40
2023-03-16T07:06:43.289Z,2.75
2023-03-16T07:10:48.552Z,3.10
2023-03-16T07:14:54.042Z,3.08
2023-03-16T07:19:01.688Z,2.75
2023-03-16T07:23:05.404Z,3.20
2023-03-16T07:27:12.442Z,2.95
2023-03-16T07:31:15.950Z,2.83
2023-03-16T07:35:19.245Z,2.80
2023-03-16T07:39:22.730Z,3.10
2023-03-16T07:43:30.126Z,3.13
2023-03-16T07:47:33.695Z,3.13
2023-03-16T07:51:42.345Z,3.08
2023-03-16T07:55:45.962Z,3.28
2023-03-16T07:59:50.219Z,3.45
2023-03-16T08:03:54.455Z,3.40
2023-03-16T08:07:58.040Z,3.47
2023-03-16T08:12:03.916Z,3.05
2023-03-16T08:16:13.192Z,3.58
2023-03-16T08:20:19.270Z,3.20
2023-03-16T08:24:23.567Z,3.08
2023-03-16T08:28:27.005Z,3.13
2023-03-16T08:32:33.408Z,3.00
2023-03-16T08:36:36.985Z,3.33
2023-03-16T08:40:42.094Z,3.05
2023-03-16T08:44:45.678Z,3.47
2023-03-16T08:48:50.098Z,3.63
2023-03-16T08:52:53.537Z,3.25
2023-03-16T08:56:56.626Z,3.60
2023-03-16T09:01:00.433Z,3.00
2023-03-16T09:05:04.947Z,2.97
2023-03-16T09:09:09.434Z,3.15
2023-03-16T09:13:12.635Z,3.20
2023-03-16T09:17:15.744Z,3.47
2023-03-16T09:21:19.956Z,3.35
2023-03-16T09:25:23.108Z,2.80
2023-03-16T09:29:25.898Z,3.08
2023-03-16T09:33:30.031Z,3.03
2023-03-16T09:37:44.742Z,2.70
2023-03-16T09:41:52.483Z,3.10
2023-03-16T09:46:03.925Z,3.00
2023-03-16T09:50:10.945Z,3.28
2023-03-16T09:54:27.590Z,2.85
2023-03-16T09:58:30.748Z,2.83
2023-03-16T10:02:59.759Z,3.08
2023-03-16T10:07:12.332Z,3.05
2023-03-16T10:11:27.751Z,2.88
2023-03-16T10:15:34.359Z,3.53
2023-03-16T10:19:41.967Z,3.67
2023-03-16T10:23:46.472Z,3.45
2023-03-16T10:27:51.278Z,3.70
2023-03-16T10:32:00.398Z,3.40
2023-03-16T10:36:11.394Z,3.28
2023-03-16T10:40:14.544Z,3.05
2023-03-16T10:44:24.489Z,3.40
2023-03-16T10:48:28.284Z,3.55
2023-03-16T10:52:36.354Z,3.38
2023-03-16T10:56:40.309Z,3.13
2023-03-16T11:00:45.298Z,3.60
2023-03-16T11:04:49.441Z,3.30
2023-03-16T11:08:53.978Z,3.38
2023-03-16T11:13:02.903Z,3.30
2023-03-16T11:17:12.281Z,3.38
2023-03-16T11:21:19.142Z,3.17
2023-03-16T11:25:28.594Z,3.45
2023-03-16T11:29:45.155Z,2.90
2023-03-16T11:33:50.049Z,3.30
2023-03-16T11:38:06.837Z,3.40
2023-03-16T11:42:25.160Z,3.33
2023-03-16T11:46:32.257Z,2.90
2023-03-16T11:50:46.952Z,3.22
2023-03-16T11:55:00.728Z,3.28
2023-03-16T11:59:27.027Z,2.80
2023-03-16T12:03:50.240Z,2.67
2023-03-16T12:08:05.884Z,2.67
2023-03-16T12:12:20.377Z,2.60
2023-03-16T12:16:39.090Z,2.53
2023-03-16T12:20:54.842Z,2.45
2023-03-16T12:24:58.925Z,2.30
2023-03-16T12:29:09.480Z,2.50
2023-03-16T12:33:19.449Z,2.15
2023-03-16T12:37:36.046Z,1.98
2023-03-16T12:41:52.645Z,2.15
2023-03-16T12:46:04.575Z,2.22
2023-03-16T12:50:09.279Z,2.47
2023-03-16T12:54:23.064Z,2.00
2023-03-16T12:58:28.492Z,2.15
2023-03-16T13:02:33.360Z,2.20
2023-03-16T13:06:37.417Z,2.15
2023-03-16T13:10:41.175Z,2.83
2023-03-16T13:14:45.758Z,2.30
2023-03-16T13:18:48.763Z,2.50
2023-03-16T13:23:08.156Z,2.05
2023-03-16T13:27:23.244Z,1.50
2023-03-16T13:31:34.920Z,3.65
2023-03-16T13:35:39.520Z,1.95
2023-03-16T13:39:42.621Z,2.78
2023-03-16T13:43:45.495Z,2.22
2023-03-16T13:47:49.933Z,1.55
2023-03-16T13:51:52.727Z,1.60
2023-03-16T13:55:57.087Z,2.03
2023-03-16T14:00:09.080Z,2.25
2023-03-16T14:04:15.822Z,1.95
2023-03-16T14:08:20.462Z,1.75
2023-03-16T14:12:23.398Z,1.67
2023-03-16T14:16:28.341Z,1.98
2023-03-16T14:20:34.936Z,1.88
2023-03-16T14:24:42.891Z,1.95
2023-03-16T14:28:57.301Z,2.20
2023-03-16T14:33:01.794Z,1.60
2023-03-16T14:37:11.755Z,1.75
2023-03-16T14:41:23.887Z,2.50
2023-03-16T14:45:31.864Z,3.05
2023-03-16T14:49:37.300Z,2.50
2023-03-16T14:53:41.614Z,1.95
2023-03-16T14:57:46.041Z,1.77
2023-03-16T15:01:50.657Z,1.52
2023-03-16T15:05:53.999Z,1.60
2023-03-16T15:10:10.249Z,1.95
2023-03-16T15:14:35.343Z,1.60
2023-03-16T15:18:39.219Z,1.58
2023-03-16T15:22:42.643Z,1.60
2023-03-16T15:26:47.128Z,1.75
2023-03-16T15:30:51.824Z,2.20
2023-03-16T15:34:54.711Z,1.70
2023-03-16T15:38:57.887Z,2.05
2023-03-16T15:43:02.475Z,1.95
2023-03-16T15:47:05.349Z,2.58
2023-03-16T15:51:16.726Z,1.83
2023-03-16T15:55:23.390Z,2.20
2023-03-16T15:59:31.662Z,1.95
2023-03-16T16:03:34.743Z,2.00
2023-03-16T16:07:37.728Z,2.55
2023-03-16T16:11:41.310Z,2.20
2023-03-16T16:15:46.981Z,2.58
2023-03-16T16:19:49.766Z,1.67
2023-03-16T16:23:53.575Z,2.28
2023-03-16T16:27:56.447Z,2.15
2023-03-16T16:32:01.118Z,2.92
2023-03-16T16:36:06.458Z,2.55
2023-03-16T16:40:14.768Z,2.65
2023-03-16T16:44:19.872Z,2.60
2023-03-16T16:48:31.890Z,2.67
2023-03-16T16:52:34.604Z,2.50
2023-03-16T16:56:38.741Z,2.40
2023-03-16T17:00:44.347Z,2.67
2023-03-16T17:04:50.539Z,2.50
2023-03-16T17:08:56.019Z,2.60
2023-03-16T17:13:06.062Z,3.40
2023-03-16T17:17:16.586Z,2.70
2023-03-16T17:21:23.960Z,2.80
2023-03-16T17:25:30.371Z,2.33
2023-03-16T17:29:34.548Z,3.17
2023-03-16T17:33:37.431Z,2.83
2023-03-16T17:37:41.634Z,2.80
2023-03-16T17:41:47.467Z,3.10
2023-03-16T17:45:53.757Z,3.17
2023-03-16T17:49:57.834Z,3.50
2023-03-16T17:54:02.167Z,4.45
2023-03-16T17:58:05.630Z,3.80
2023-03-16T18:02:33.501Z,3.45
2023-03-16T18:06:36.254Z,3.90
2023-03-16T18:10:40.617Z,4.22
2023-03-16T18:14:43.724Z,3.78
2023-03-16T18:18:47.715Z,4.10
2023-03-16T18:22:51.529Z,3.97
2023-03-16T18:26:56.958Z,3.90
2023-03-16T18:31:01.365Z,4.13
2023-03-16T18:35:04.579Z,4.25
2023-03-16T18:39:19.919Z,4.45
2023-03-16T18:43:26.121Z,4.32
2023-03-16T18:47:31.611Z,4.50
2023-03-16T18:51:34.602Z,4.18
2023-03-16T18:55:44.764Z,4.65
2023-03-16T18:59:50.734Z,4.13
2023-03-16T19:03:55.195Z,4.32
2023-03-16T19:07:59.305Z,4.22
2023-03-16T19:12:04.564Z,4.10
2023-03-16T19:16:17.270Z,4.45
2023-03-16T19:20:25.419Z,4.20
2023-03-16T19:24:32.509Z,4.45
2023-03-16T19:28:37.159Z,4.95
2023-03-16T19:32:41.278Z,4.53
2023-03-16T19:36:44.170Z,4.60
2023-03-16T19:40:48.839Z,4.68
2023-03-16T19:44:51.956Z,4.05
2023-03-16T19:48:56.565Z,4.38
2023-03-16T19:53:00.727Z,4.35
2023-03-16T19:57:08.336Z,4.50
2023-03-16T20:01:17.733Z,4.00
2023-03-16T20:05:25.136Z,4.03
2023-03-16T20:09:28.156Z,4.45
2023-03-16T20:13:35.597Z,4.60
2023-03-16T20:17:38.695Z,4.40
2023-03-16T20:21:43.222Z,4.30
2023-03-16T20:25:47.639Z,3.80
2023-03-16T20:29:51.653Z,3.83
2023-03-16T20:33:55.371Z,4.03
2023-03-16T20:37:59.799Z,3.80
2023-03-16T20:42:02.543Z,4.07
2023-03-16T20:46:06.403Z,3.83
2023-03-16T20:50:22.644Z,4.20
2023-03-16T20:54:27.178Z,4.22
2023-03-16T20:58:32.450Z,4.10
2023-03-16T21:02:36.042Z,4.18
2023-03-16T21:06:38.988Z,4.00
2023-03-16T21:10:44.646Z,3.67
2023-03-16T21:14:47.453Z,4.30
2023-03-16T21:18:50.402Z,3.95
2023-03-16T21:22:53.459Z,3.72
2023-03-16T21:26:57.816Z,3.78
2023-03-16T21:31:02.763Z,4.00
2023-03-16T21:35:06.611Z,3.42
2023-03-16T21:39:19.330Z,3.70
2023-03-16T21:43:25.645Z,4.07
2023-03-16T21:47:30.155Z,3.45
2023-03-16T21:51:33.511Z,3.78
2023-03-16T21:55:36.884Z,3.78
2023-03-16T21:59:41.093Z,3.65
2023-03-16T22:03:51.055Z,4.13
2023-03-16T22:07:57.389Z,4.00
2023-03-16T22:12:00.378Z,3.95
2023-03-16T22:16:15.010Z,4.07
2023-03-16T22:20:20.268Z,3.70
2023-03-16T22:24:25.373Z,4.45
2023-03-16T22:28:28.897Z,4.00
2023-03-16T22:32:33.241Z,4.00
2023-03-16T22:36:36.558Z,3.92
2023-03-16T22:40:40.450Z,4.18
2023-03-16T22:44:43.196Z,4.20
2023-03-16T22:48:47.512Z,4.45
2023-03-16T22:52:53.428Z,4.45
2023-03-16T22:56:56.378Z,4.55
2023-03-16T23:01:02.058Z,4.15
2023-03-16T23:05:19.747Z,4.57
2023-03-16T23:09:23.250Z,4.70
2023-03-16T23:13:27.260Z,4.22
2023-03-16T23:17:29.990Z,4.10
2023-03-16T23:21:34.050Z,4.40
2023-03-16T23:25:41.711Z,4.10
2023-03-16T23:29:44.456Z,4.22
2023-03-16T23:33:48.133Z,4.30
2023-03-16T23:37:55.578Z,4.68
2023-03-16T23:41:59.706Z,4.75
2023-03-16T23:46:03.119Z,4.40
2023-03-16T23:50:07.683Z,4.22
2023-03-16T23:54:16.768Z,4.32
2023-03-16T23:58:20.859Z,4.60
